Time,TemperatureF,DewpointF,PressureIn,WindDirection,WindDirectionDegrees,WindSpeedMPH,WindSpeedGustMPH,Humidity,HourlyPrecipIn,Conditions,Clouds,dailyrainin,SoftwareType,DateUTC
2013-06-22 00:01:00,68.5,68.5,29.99,East,84,1.2,2.5,100,0.08,RA,,0.00,WeatherDisplay:10.37,2013-06-22 05:01:00,
2013-06-22 00:06:00,68.6,68.6,30.00,SE,129,2.2,4.6,100,0.05,-RA,,0.00,WeatherDisplay:10.37,2013-06-22 05:06:00,
2013-06-22 00:11:00,68.6,68.6,30.00,SE,126,1.9,2.3,100,0.02,-RA,,0.00,WeatherDisplay:10.37,2013-06-22 05:11:00,
2013-06-22 00:16:00,68.8,68.8,30.04,South,189,2.9,8.1,100,0.01,-RA,,0.00,WeatherDisplay:10.37,2013-06-22 05:16:00,
2013-06-22 00:21:00,68.8,68.8,30.04,South,172,1.7,4.6,100,0.01,-RA,,0.00,WeatherDisplay:10.37,2013-06-22 05:21:00,
2013-06-22 00:26:00,68.7,68.7,30.03,WSW,250,3.2,5.8,100,0.01,-RA,,0.00,WeatherDisplay:10.37,2013-06-22 05:26:00,
2013-06-22 00:31:00,68.6,68.6,30.02,SW,232,6.0,9.2,100,0.01,-RA,,0.00,WeatherDisplay:10.37,2013-06-22 05:31:00,
2013-06-22 00:36:00,68.5,68.5,30.02,SE,133,3.0,5.5,100,0.01,-RA,,0.01,WeatherDisplay:10.37,2013-06-22 05:36:00,
2013-06-22 00:41:00,68.4,68.4,30.02,ESE,115,1.3,5.8,100,0.03,-RA,,0.03,WeatherDisplay:10.37,2013-06-22 05:41:00,
2013-06-22 00:46:00,68.5,68.5,29.98,ESE,116,2.9,5.8,100,0.05,-RA,,0.05,WeatherDisplay:10.37,2013-06-22 05:46:00,
2013-06-22 00:51:00,68.3,68.3,29.97,East,81,0.0,0.0,100,0.05,-RA,,0.06,WeatherDisplay:10.37,2013-06-22 05:51:00,
2013-06-22 00:56:00,68.3,68.3,29.99,SE,143,2.7,4.6,100,0.06,-RA,,0.06,WeatherDisplay:10.37,2013-06-22 05:56:00,
2013-06-22 01:01:00,68.2,68.2,29.98,SW,225,2.3,4.6,100,0.06,RA,,0.06,WeatherDisplay:10.37,2013-06-22 06:01:00,
2013-06-22 01:06:00,68.1,68.1,29.96,NE,48,0.9,3.5,100,0.06,OVC,,0.06,WeatherDisplay:10.37,2013-06-22 06:06:00,
2013-06-22 01:11:00,67.9,67.9,29.95,NNE,30,0.0,0.0,100,0.06,OVC,,0.06,WeatherDisplay:10.37,2013-06-22 06:11:00,
2013-06-22 01:16:00,67.9,67.9,29.96,South,170,3.7,5.8,100,0.06,OVC,,0.06,WeatherDisplay:10.37,2013-06-22 06:16:00,
2013-06-22 01:21:00,67.8,67.8,29.97,West,267,5.9,8.1,100,0.06,OVC,,0.06,WeatherDisplay:10.37,2013-06-22 06:21:00,
2013-06-22 01:26:00,67.7,67.7,29.97,SSW,213,5.8,9.8,100,0.06,OVC,,0.06,WeatherDisplay:10.37,2013-06-22 06:26:00,
2013-06-22 01:31:00,67.7,67.7,29.97,SSW,213,4.1,9.7,100,0.07,RA,,0.07,WeatherDisplay:10.37,2013-06-22 06:31:00,
2013-06-22 01:36:00,67.4,67.4,29.96,SSW,194,4.3,6.9,100,0.06,RA,,0.07,WeatherDisplay:10.37,2013-06-22 06:36:00,
2013-06-22 01:41:00,67.4,67.4,29.97,SSW,205,3.9,6.9,100,0.04,OVC,,0.07,WeatherDisplay:10.37,2013-06-22 06:41:00,
2013-06-22 01:46:00,67.3,67.3,29.97,West,271,5.0,7.8,100,0.02,OVC,,0.07,WeatherDisplay:10.37,2013-06-22 06:46:00,
2013-06-22 01:51:00,67.5,67.5,29.98,South,187,4.1,8.1,100,0.03,RA,,0.08,WeatherDisplay:10.37,2013-06-22 06:51:00,
2013-06-22 01:56:00,67.3,67.3,29.98,SSW,192,5.1,9.2,100,0.02,RA,,0.08,WeatherDisplay:10.37,2013-06-22 06:56:00,
2013-06-22 02:01:00,67.7,67.7,29.97,WSW,252,3.0,5.8,100,0.02,-RA,,0.08,WeatherDisplay:10.37,2013-06-22 07:01:00,
2013-06-22 02:06:00,67.7,67.7,29.95,WSW,253,3.3,4.6,100,0.03,-RA,,0.09,WeatherDisplay:10.37,2013-06-22 07:06:00,
2013-06-22 02:11:00,67.7,67.7,29.95,WSW,240,3.2,4.6,100,0.03,-RA,,0.09,WeatherDisplay:10.37,2013-06-22 07:11:00,
2013-06-22 02:16:00,67.8,67.8,29.95,SW,225,1.3,4.6,100,0.03,-RA,,0.09,WeatherDisplay:10.37,2013-06-22 07:16:00,
2013-06-22 02:21:00,67.7,67.7,29.95,WNW,295,2.5,3.5,100,0.03,-RA,,0.09,WeatherDisplay:10.37,2013-06-22 07:21:00,
2013-06-22 02:26:00,67.4,67.4,29.97,SW,225,6.4,9.2,100,0.03,-RA,,0.09,WeatherDisplay:10.37,2013-06-22 07:26:00,
2013-06-22 02:31:00,67.4,67.4,29.99,SW,229,6.8,9.5,100,0.02,-RA,,0.09,WeatherDisplay:10.37,2013-06-22 07:31:00,
2013-06-22 02:36:00,67.6,67.6,29.99,WSW,237,4.4,10.4,100,0.02,-RA,,0.09,WeatherDisplay:10.37,2013-06-22 07:36:00,
2013-06-22 02:41:00,67.4,67.4,29.98,WSW,240,4.9,10.4,100,0.03,-RA,,0.10,WeatherDisplay:10.37,2013-06-22 07:41:00,
2013-06-22 02:46:00,67.3,67.3,29.98,SSW,192,6.0,10.4,100,0.03,-RA,,0.10,WeatherDisplay:10.37,2013-06-22 07:46:00,
2013-06-22 02:51:00,67.6,67.6,30.00,WSW,243,3.7,6.9,100,0.02,-RA,,0.10,WeatherDisplay:10.37,2013-06-22 07:51:00,
2013-06-22 02:56:00,67.4,67.4,30.00,WSW,252,6.3,9.2,100,0.02,-RA,,0.10,WeatherDisplay:10.37,2013-06-22 07:56:00,
2013-06-22 03:01:00,67.6,67.6,30.00,SSW,202,4.5,5.8,100,0.02,SCT,,0.10,WeatherDisplay:10.37,2013-06-22 08:01:00,
2013-06-22 03:06:00,67.5,67.5,30.00,South,170,3.2,5.8,100,0.02,RA,,0.11,WeatherDisplay:10.37,2013-06-22 08:06:00,
2013-06-22 03:11:00,67.4,67.4,29.99,NNE,26,3.8,6.9,100,0.02,RA,,0.11,WeatherDisplay:10.37,2013-06-22 08:11:00,
2013-06-22 03:16:00,67.2,67.2,29.99,South,189,2.6,5.8,100,0.02,SCT,,0.11,WeatherDisplay:10.37,2013-06-22 08:16:00,
2013-06-22 03:21:00,67.1,67.1,29.97,SSW,213,4.2,5.8,100,0.02,SCT,,0.11,WeatherDisplay:10.37,2013-06-22 08:21:00,
2013-06-22 03:26:00,66.9,66.9,29.98,SSW,211,5.5,9.2,100,0.03,RA,,0.12,WeatherDisplay:10.37,2013-06-22 08:26:00,
2013-06-22 03:31:00,66.8,66.8,29.99,South,188,6.3,10.4,100,0.03,RA,,0.12,WeatherDisplay:10.37,2013-06-22 08:31:00,
2013-06-22 03:36:00,66.7,66.7,29.99,WSW,243,6.4,9.2,100,0.03,SCT,,0.12,WeatherDisplay:10.37,2013-06-22 08:36:00,
2013-06-22 03:41:00,66.8,66.8,29.98,West,261,3.9,8.1,100,0.03,RA,,0.13,WeatherDisplay:10.37,2013-06-22 08:41:00,
2013-06-22 03:46:00,66.7,66.7,29.99,West,271,5.0,6.9,100,0.04,RA,,0.15,WeatherDisplay:10.37,2013-06-22 08:46:00,
2013-06-22 03:51:00,66.8,66.8,30.00,WNW,297,6.5,10.4,100,0.05,RA,,0.15,WeatherDisplay:10.37,2013-06-22 08:51:00,
2013-06-22 03:56:00,66.8,66.8,30.00,SW,222,5.1,10.4,100,0.05,RA,,0.15,WeatherDisplay:10.37,2013-06-22 08:56:00,
2013-06-22 04:01:00,66.7,66.7,30.02,West,281,6.9,9.3,100,0.06,RA,,0.16,WeatherDisplay:10.37,2013-06-22 09:01:00,
2013-06-22 04:06:00,66.8,66.8,30.03,WSW,243,3.4,13.8,100,0.05,RA,,0.16,WeatherDisplay:10.37,2013-06-22 09:06:00,
2013-06-22 04:11:00,66.8,66.8,30.03,ENE,71,6.1,8.1,100,0.05,BKN,,0.16,WeatherDisplay:10.37,2013-06-22 09:11:00,
2013-06-22 04:16:00,66.8,66.8,30.04,NNW,339,3.3,9.2,100,0.06,RA,,0.17,WeatherDisplay:10.37,2013-06-22 09:16:00,
2013-06-22 04:21:00,66.8,66.8,30.04,WNW,283,2.2,4.6,100,0.06,RA,,0.17,WeatherDisplay:10.37,2013-06-22 09:21:00,
2013-06-22 04:26:00,66.8,66.8,30.03,SW,235,3.1,5.8,100,0.06,RA,,0.18,WeatherDisplay:10.37,2013-06-22 09:26:00,
2013-06-22 04:31:00,66.7,66.7,30.05,SW,232,5.0,9.2,100,0.06,RA,,0.18,WeatherDisplay:10.37,2013-06-22 09:31:00,
2013-06-22 04:36:00,66.4,66.4,30.07,SW,230,6.4,9.2,100,0.06,BKN,,0.18,WeatherDisplay:10.37,2013-06-22 09:36:00,
2013-06-22 04:41:00,66.4,66.4,30.06,SSW,205,5.6,9.2,100,0.06,RA,,0.19,WeatherDisplay:10.37,2013-06-22 09:41:00,
2013-06-22 04:46:00,66.5,66.5,30.06,South,177,4.7,6.9,100,0.05,RA,,0.19,WeatherDisplay:10.37,2013-06-22 09:46:00,
2013-06-22 04:51:00,66.4,66.4,30.06,WSW,243,1.5,4.6,100,0.05,RA,,0.20,WeatherDisplay:10.37,2013-06-22 09:51:00,
2013-06-22 04:56:00,66.3,66.3,30.06,SW,232,3.8,5.8,100,0.05,RA,,0.20,WeatherDisplay:10.37,2013-06-22 09:56:00,
2013-06-22 05:01:00,66.3,66.3,30.06,West,260,4.9,8.1,100,0.04,-RA,,0.20,WeatherDisplay:10.37,2013-06-22 10:01:00,
2013-06-22 05:06:00,66.3,66.3,30.06,SW,223,3.0,5.8,100,0.05,-RA,,0.21,WeatherDisplay:10.37,2013-06-22 10:06:00,
2013-06-22 05:11:00,66.2,66.2,30.05,South,174,2.3,4.6,100,0.05,-RA,,0.21,WeatherDisplay:10.37,2013-06-22 10:11:00,
2013-06-22 05:16:00,66.0,66.0,30.04,WSW,243,4.0,4.6,100,0.04,-RA,,0.21,WeatherDisplay:10.37,2013-06-22 10:16:00,
2013-06-22 05:21:00,66.1,66.1,30.05,SSW,195,2.6,5.8,100,0.05,-RA,,0.22,WeatherDisplay:10.37,2013-06-22 10:21:00,
2013-06-22 05:26:00,66.0,66.0,30.05,South,172,1.4,7.3,100,0.05,-RA,,0.23,WeatherDisplay:10.37,2013-06-22 10:26:00,
2013-06-22 05:31:00,65.9,65.9,30.05,SSW,201,1.9,4.6,100,0.06,-RA,,0.24,WeatherDisplay:10.37,2013-06-22 10:31:00,
2013-06-22 05:36:00,66.0,66.0,30.04,ESE,123,2.2,5.8,100,0.06,-RA,,0.24,WeatherDisplay:10.37,2013-06-22 10:36:00,
2013-06-22 05:41:00,65.9,65.9,30.05,South,188,6.7,8.1,100,0.05,-RA,,0.24,WeatherDisplay:10.37,2013-06-22 10:41:00,
2013-06-22 05:46:00,65.8,65.8,30.06,SSE,150,3.5,5.8,100,0.06,-RA,,0.25,WeatherDisplay:10.37,2013-06-22 10:46:00,
2013-06-22 05:51:00,65.7,65.7,30.06,South,191,4.5,9.2,100,0.05,-RA,,0.25,WeatherDisplay:10.37,2013-06-22 10:51:00,
2013-06-22 05:56:00,65.7,65.7,30.05,SSE,163,2.6,6.9,100,0.06,-RA,,0.26,WeatherDisplay:10.37,2013-06-22 10:56:00,
2013-06-22 06:02:00,65.5,65.5,30.06,SSW,201,3.3,5.8,100,0.07,RA,,0.27,WeatherDisplay:10.37,2013-06-22 11:02:00,
2013-06-22 06:07:00,65.5,65.5,30.06,SSW,211,2.2,6.9,100,0.06,RA,,0.27,WeatherDisplay:10.37,2013-06-22 11:07:00,
2013-06-22 06:12:00,65.4,65.4,30.07,SSW,199,1.7,3.5,100,0.07,RA,,0.28,WeatherDisplay:10.37,2013-06-22 11:12:00,
2013-06-22 06:17:00,65.4,65.4,30.07,South,184,1.8,4.6,100,0.07,RA,,0.28,WeatherDisplay:10.37,2013-06-22 11:17:00,
2013-06-22 06:22:00,65.3,65.3,30.07,SW,226,2.5,4.6,100,0.07,RA,,0.29,WeatherDisplay:10.37,2013-06-22 11:22:00,
2013-06-22 06:27:00,65.3,65.3,30.07,SSE,148,1.9,5.8,100,0.07,RA,,0.30,WeatherDisplay:10.37,2013-06-22 11:27:00,
2013-06-22 06:32:00,65.3,65.3,30.07,SSW,199,0.0,1.2,100,0.07,RA,,0.31,WeatherDisplay:10.37,2013-06-22 11:32:00,
2013-06-22 06:37:00,65.3,65.3,30.08,SSW,192,0.4,2.3,100,0.07,RA,,0.31,WeatherDisplay:10.37,2013-06-22 11:37:00,
2013-06-22 06:42:00,65.3,65.3,30.08,South,185,0.8,2.3,100,0.07,RA,,0.32,WeatherDisplay:10.37,2013-06-22 11:42:00,
2013-06-22 06:47:00,65.3,65.3,30.08,SSE,157,0.0,0.0,100,0.07,RA,,0.32,WeatherDisplay:10.37,2013-06-22 11:47:00,
2013-06-22 06:52:00,65.3,65.3,30.09,SSE,157,0.0,0.0,100,0.07,BKN,,0.32,WeatherDisplay:10.37,2013-06-22 11:52:00,
2013-06-22 06:57:00,65.6,65.6,30.09,SSE,157,0.0,0.0,100,0.06,BKN,,0.32,WeatherDisplay:10.37,2013-06-22 11:57:00,
2013-06-22 07:02:00,65.6,65.6,30.09,SSE,157,0.0,0.0,100,0.05,-RA,,0.32,WeatherDisplay:10.37,2013-06-22 12:02:00,
2013-06-22 07:07:00,65.7,65.7,30.08,SSE,157,0.0,0.0,100,0.05,-RA,,0.32,WeatherDisplay:10.37,2013-06-22 12:07:00,
2013-06-22 07:12:00,65.7,65.7,30.07,SSE,157,0.0,0.0,100,0.04,-RA,,0.32,WeatherDisplay:10.37,2013-06-22 12:12:00,
2013-06-22 07:17:00,65.7,65.7,30.07,SSE,157,0.0,0.0,100,0.04,-RA,,0.32,WeatherDisplay:10.37,2013-06-22 12:17:00,
2013-06-22 07:22:00,65.8,65.8,30.07,SW,218,2.5,3.5,100,0.03,-RA,,0.32,WeatherDisplay:10.37,2013-06-22 12:22:00,
2013-06-22 07:27:00,65.6,65.6,30.06,WSW,246,2.0,4.6,100,0.02,-RA,,0.32,WeatherDisplay:10.37,2013-06-22 12:27:00,
2013-06-22 07:32:00,65.9,65.9,30.06,NW,316,1.7,3.5,100,0.01,-RA,,0.32,WeatherDisplay:10.37,2013-06-22 12:32:00,
2013-06-22 07:37:00,65.7,65.7,30.06,West,280,3.2,4.6,100,0.01,-RA,,0.32,WeatherDisplay:10.37,2013-06-22 12:37:00,
2013-06-22 07:42:00,65.8,65.8,30.06,NW,316,3.0,4.6,100,0.00,-RA,,0.32,WeatherDisplay:10.37,2013-06-22 12:42:00,
2013-06-22 07:47:00,65.8,65.8,30.06,WSW,243,2.5,3.5,100,0.00,-RA,,0.32,WeatherDisplay:10.37,2013-06-22 12:47:00,
2013-06-22 07:52:00,65.8,65.8,30.06,WSW,246,2.9,4.6,100,0.00,-RA,,0.32,WeatherDisplay:10.37,2013-06-22 12:52:00,
2013-06-22 07:57:00,65.8,65.8,30.06,WSW,240,2.1,3.5,100,0.00,-RA,,0.32,WeatherDisplay:10.37,2013-06-22 12:57:00,
2013-06-22 08:02:00,65.8,65.8,30.06,WSW,246,2.6,4.6,100,0.00,BKN,,0.32,WeatherDisplay:10.37,2013-06-22 13:02:00,
2013-06-22 08:07:00,65.8,65.8,30.06,WSW,257,2.9,5.8,100,0.00,BKN,,0.32,WeatherDisplay:10.37,2013-06-22 13:07:00,
2013-06-22 08:12:00,65.9,65.9,30.06,WSW,250,4.8,8.1,100,0.00,BKN,,0.32,WeatherDisplay:10.37,2013-06-22 13:12:00,
2013-06-22 08:17:00,65.8,65.8,30.06,South,187,5.0,6.9,100,0.00,BKN,,0.32,WeatherDisplay:10.37,2013-06-22 13:17:00,
2013-06-22 08:22:00,65.7,65.7,30.06,West,263,4.4,8.1,100,0.00,BKN,,0.32,WeatherDisplay:10.37,2013-06-22 13:22:00,
2013-06-22 08:27:00,65.6,65.6,30.08,WNW,301,6.6,10.0,100,0.00,BKN,,0.32,WeatherDisplay:10.37,2013-06-22 13:27:00,
2013-06-22 08:32:00,65.6,65.6,30.08,NW,314,4.4,5.8,100,0.00,BKN,,0.32,WeatherDisplay:10.37,2013-06-22 13:32:00,
2013-06-22 08:37:00,65.7,65.7,30.09,North,359,2.5,6.9,100,0.00,BKN,,0.32,WeatherDisplay:10.37,2013-06-22 13:37:00,
2013-06-22 08:42:00,65.8,65.8,30.09,NNW,335,3.6,8.1,100,0.00,BKN,,0.32,WeatherDisplay:10.37,2013-06-22 13:42:00,
2013-06-22 08:47:00,65.7,65.7,30.08,WSW,252,2.6,4.6,100,0.00,BKN,,0.32,WeatherDisplay:10.37,2013-06-22 13:47:00,
2013-06-22 08:52:00,65.6,65.6,30.08,WNW,288,3.5,5.8,100,0.00,BKN,,0.32,WeatherDisplay:10.37,2013-06-22 13:52:00,
2013-06-22 08:57:00,65.7,65.7,30.08,NW,318,3.7,5.8,100,0.00,BKN,,0.32,WeatherDisplay:10.37,2013-06-22 13:57:00,
2013-06-22 09:02:00,65.7,65.7,30.09,WNW,302,4.0,5.8,100,0.00,-RA,,0.32,WeatherDisplay:10.37,2013-06-22 14:02:00,
2013-06-22 09:07:00,65.7,65.7,30.10,West,278,4.8,8.1,100,0.00,-RA,,0.32,WeatherDisplay:10.37,2013-06-22 14:07:00,
2013-06-22 09:12:00,65.8,65.8,30.10,NW,321,4.6,6.9,100,0.00,-RA,,0.32,WeatherDisplay:10.37,2013-06-22 14:12:00,
2013-06-22 09:17:00,65.7,65.7,30.11,WNW,290,2.6,4.6,100,0.00,-RA,,0.32,WeatherDisplay:10.37,2013-06-22 14:17:00,
2013-06-22 09:22:00,65.9,65.9,30.11,West,264,2.9,5.8,100,0.00,-RA,,0.32,WeatherDisplay:10.37,2013-06-22 14:22:00,
2013-06-22 09:27:00,65.8,65.8,30.13,SW,232,1.2,3.5,100,0.01,-RA,,0.33,WeatherDisplay:10.37,2013-06-22 14:27:00,
2013-06-22 09:32:00,65.8,65.8,30.13,WSW,240,6.3,10.4,100,0.02,-RA,,0.34,WeatherDisplay:10.37,2013-06-22 14:32:00,
2013-06-22 09:37:00,65.7,65.7,30.13,West,276,4.8,6.9,100,0.03,-RA,,0.35,WeatherDisplay:10.37,2013-06-22 14:37:00,
2013-06-22 09:42:00,65.7,65.7,30.12,WSW,254,4.6,9.6,100,0.03,-RA,,0.35,WeatherDisplay:10.37,2013-06-22 14:42:00,
2013-06-22 09:47:00,65.6,65.6,30.11,SW,218,4.7,6.9,100,0.04,-RA,,0.36,WeatherDisplay:10.37,2013-06-22 14:47:00,
2013-06-22 09:52:00,65.5,65.5,30.10,SW,228,3.9,6.9,100,0.04,-RA,,0.36,WeatherDisplay:10.37,2013-06-22 14:52:00,
2013-06-22 09:57:00,65.6,65.6,30.09,South,180,1.1,2.3,100,0.04,-RA,,0.36,WeatherDisplay:10.37,2013-06-22 14:57:00,
2013-06-22 10:02:00,65.6,65.6,30.09,SW,235,6.0,8.1,100,0.05,-RA,,0.37,WeatherDisplay:10.37,2013-06-22 15:02:00,
2013-06-22 10:07:00,65.6,65.6,30.10,SSW,196,4.0,6.9,100,0.06,-RA,,0.38,WeatherDisplay:10.37,2013-06-22 15:07:00,
2013-06-22 10:12:00,65.7,65.7,30.09,SW,219,3.9,6.9,100,0.06,-RA,,0.38,WeatherDisplay:10.37,2013-06-22 15:12:00,
2013-06-22 10:17:00,65.6,65.6,30.09,SW,216,6.7,9.2,100,0.07,-RA,,0.39,WeatherDisplay:10.37,2013-06-22 15:17:00,
2013-06-22 10:22:00,65.7,65.7,30.08,SSE,161,6.0,10.4,100,0.07,-RA,,0.39,WeatherDisplay:10.37,2013-06-22 15:22:00,
2013-06-22 10:27:00,65.6,65.6,30.06,ESE,106,2.3,4.6,100,0.06,-RA,,0.40,WeatherDisplay:10.37,2013-06-22 15:27:00,
2013-06-22 10:32:00,65.5,65.5,30.06,SSE,160,5.2,9.2,100,0.06,-RA,,0.40,WeatherDisplay:10.37,2013-06-22 15:32:00,
2013-06-22 10:37:00,65.6,65.6,30.05,SSE,154,6.5,10.4,100,0.05,-RA,,0.40,WeatherDisplay:10.37,2013-06-22 15:37:00,
2013-06-22 10:42:00,65.6,65.6,30.03,South,175,5.0,9.2,100,0.05,-RA,,0.41,WeatherDisplay:10.37,2013-06-22 15:42:00,
2013-06-22 10:47:00,65.7,65.7,30.02,SSE,163,8.1,9.2,100,0.05,-RA,,0.41,WeatherDisplay:10.37,2013-06-22 15:47:00,
2013-06-22 10:52:00,66.0,66.0,29.99,ESE,123,5.4,16.1,100,0.05,-RA,,0.41,WeatherDisplay:10.37,2013-06-22 15:52:00,
2013-06-22 10:57:00,65.8,65.8,29.97,SE,141,6.3,13.8,100,0.05,-RA,,0.41,WeatherDisplay:10.37,2013-06-22 15:57:00,
2013-06-22 11:02:00,66.2,66.2,29.96,SSE,147,5.8,8.1,100,0.04,-RA,,0.41,WeatherDisplay:10.37,2013-06-22 16:02:00,
2013-06-22 11:07:00,66.5,66.5,29.95,WSW,252,3.9,12.7,100,0.03,-RA,,0.41,WeatherDisplay:10.37,2013-06-22 16:07:00,
2013-06-22 11:12:00,67.2,67.2,29.95,ENE,68,2.8,8.1,100,0.03,-RA,,0.41,WeatherDisplay:10.37,2013-06-22 16:12:00,
2013-06-22 11:17:00,68.0,68.0,29.95,ENE,76,5.5,9.1,100,0.02,-RA,,0.41,WeatherDisplay:10.37,2013-06-22 16:17:00,
2013-06-22 11:22:00,68.5,68.5,29.94,South,191,3.5,9.2,100,0.02,-RA,,0.41,WeatherDisplay:10.37,2013-06-22 16:22:00,
2013-06-22 11:27:00,69.4,68.5,29.95,East,95,3.2,8.1,97,0.02,-RA,,0.41,WeatherDisplay:10.37,2013-06-22 16:27:00,
2013-06-22 11:32:00,70.3,70.0,29.95,ENE,68,3.6,7.1,99,0.01,-RA,,0.41,WeatherDisplay:10.37,2013-06-22 16:32:00,
2013-06-22 11:37:00,71.5,70.3,29.95,WNW,291,2.5,4.6,96,0.01,-RA,,0.41,WeatherDisplay:10.37,2013-06-22 16:37:00,
2013-06-22 11:42:00,72.4,69.9,29.95,ESE,109,3.8,8.1,92,0.01,-RA,,0.41,WeatherDisplay:10.37,2013-06-22 16:42:00,
2013-06-22 11:47:00,73.3,66.8,29.94,ESE,112,5.5,9.2,80,0.00,-RA,,0.41,WeatherDisplay:10.37,2013-06-22 16:47:00,
2013-06-22 11:52:00,73.7,65.7,29.93,ESE,102,6.7,9.2,76,0.00,-RA,,0.41,WeatherDisplay:10.37,2013-06-22 16:52:00,
2013-06-22 11:57:00,74.6,66.1,29.95,West,281,3.7,8.1,75,0.00,-RA,,0.41,WeatherDisplay:10.37,2013-06-22 16:57:00,
2013-06-22 12:02:00,75.5,67.4,29.95,SW,235,1.9,5.8,76,0.00,BKN,,0.41,WeatherDisplay:10.37,2013-06-22 17:02:00,
2013-06-22 12:07:00,76.4,67.5,29.95,WSW,239,3.8,7.1,74,0.00,BKN,,0.41,WeatherDisplay:10.37,2013-06-22 17:07:00,
2013-06-22 12:12:00,77.1,67.0,29.96,SSW,192,3.2,6.9,71,0.00,BKN,,0.41,WeatherDisplay:10.37,2013-06-22 17:12:00,
2013-06-22 12:17:00,77.4,66.8,29.96,SSW,196,4.1,8.1,70,0.00,BKN,,0.41,WeatherDisplay:10.37,2013-06-22 17:17:00,
2013-06-22 12:22:00,77.7,66.7,29.96,South,182,3.0,5.7,69,0.00,BKN,,0.41,WeatherDisplay:10.37,2013-06-22 17:22:00,
2013-06-22 12:27:00,77.9,68.1,29.96,SE,130,1.8,3.5,72,0.00,BKN,,0.41,WeatherDisplay:10.37,2013-06-22 17:27:00,
2013-06-22 12:32:00,77.8,66.0,29.97,South,185,4.0,4.0,67,0.00,BKN,,0.41,WeatherDisplay:10.37,2013-06-22 17:32:00,
2013-06-22 12:37:00,77.9,66.5,29.97,West,270,3.5,4.6,68,0.00,BKN,,0.41,WeatherDisplay:10.37,2013-06-22 17:37:00,
2013-06-22 12:42:00,78.0,66.2,29.96,SSW,205,5.0,8.1,67,0.00,BKN,,0.41,WeatherDisplay:10.37,2013-06-22 17:42:00,
2013-06-22 12:47:00,78.0,65.7,29.96,SW,216,5.2,9.2,66,0.00,BKN,,0.41,WeatherDisplay:10.37,2013-06-22 17:47:00,
2013-06-22 12:52:00,77.9,66.9,29.96,South,172,2.2,9.2,69,0.00,BKN,,0.41,WeatherDisplay:10.37,2013-06-22 17:52:00,
2013-06-22 12:57:00,77.9,66.9,29.96,WSW,247,5.6,9.2,69,0.00,BKN,,0.41,WeatherDisplay:10.37,2013-06-22 17:57:00,
2013-06-22 13:02:00,77.9,66.9,29.96,SW,223,5.3,6.9,69,0.00,SCT,,0.41,WeatherDisplay:10.37,2013-06-22 18:02:00,
2013-06-22 13:07:00,78.2,67.6,29.97,SSW,199,2.4,9.2,70,0.00,SCT,,0.41,WeatherDisplay:10.37,2013-06-22 18:07:00,
2013-06-22 13:12:00,77.7,66.3,29.97,SW,233,7.6,9.5,68,0.00,SCT,,0.41,WeatherDisplay:10.37,2013-06-22 18:12:00,
2013-06-22 13:17:00,77.5,66.1,29.98,South,191,6.8,11.5,68,0.00,SCT,,0.41,WeatherDisplay:10.37,2013-06-22 18:17:00,
2013-06-22 13:22:00,76.9,66.0,29.98,South,181,5.7,11.5,69,0.00,SCT,,0.41,WeatherDisplay:10.37,2013-06-22 18:22:00,
2013-06-22 13:27:00,76.8,66.7,29.99,WSW,253,5.2,8.5,71,0.00,SCT,,0.41,WeatherDisplay:10.37,2013-06-22 18:27:00,
2013-06-22 13:32:00,76.4,66.7,29.99,WSW,246,7.2,12.9,72,0.00,SCT,,0.41,WeatherDisplay:10.37,2013-06-22 18:32:00,
2013-06-22 13:37:00,76.3,67.4,30.00,SW,220,8.2,12.7,74,0.00,SCT,,0.41,WeatherDisplay:10.37,2013-06-22 18:37:00,
2013-06-22 13:42:00,75.9,68.2,30.00,East,98,8.3,11.5,77,0.00,SCT,,0.41,WeatherDisplay:10.37,2013-06-22 18:42:00,
2013-06-22 13:47:00,75.4,68.1,30.01,West,266,8.8,11.5,78,0.00,SCT,,0.41,WeatherDisplay:10.37,2013-06-22 18:47:00,
2013-06-22 13:52:00,74.8,68.9,30.01,SSW,194,6.7,10.4,82,0.00,SCT,,0.41,WeatherDisplay:10.37,2013-06-22 18:52:00,
2013-06-22 13:57:00,74.8,69.6,30.01,SW,219,4.5,9.2,84,0.00,SCT,,0.41,WeatherDisplay:10.37,2013-06-22 18:57:00,
2013-06-22 14:02:00,74.7,69.9,30.01,SSW,195,7.6,8.1,85,0.00,CLR,,0.41,WeatherDisplay:10.37,2013-06-22 19:02:00,
2013-06-22 14:07:00,74.7,69.2,30.00,SW,226,6.5,9.2,83,0.00,CLR,,0.41,WeatherDisplay:10.37,2013-06-22 19:07:00,
2013-06-22 14:12:00,74.9,69.7,29.99,SSW,204,4.1,8.1,84,0.00,CLR,,0.41,WeatherDisplay:10.37,2013-06-22 19:12:00,
2013-06-22 14:17:00,75.0,69.5,29.99,SSW,212,5.5,9.2,83,0.00,CLR,,0.41,WeatherDisplay:10.37,2013-06-22 19:17:00,
2013-06-22 14:22:00,75.2,70.0,29.99,East,98,5.5,11.5,84,0.00,CLR,,0.41,WeatherDisplay:10.37,2013-06-22 19:22:00,
2013-06-22 14:27:00,75.8,70.3,29.99,South,181,6.2,10.4,83,0.00,CLR,,0.41,WeatherDisplay:10.37,2013-06-22 19:27:00,
2013-06-22 14:32:00,76.1,69.1,29.99,SSW,198,7.5,13.8,79,0.00,CLR,,0.41,WeatherDisplay:10.37,2013-06-22 19:32:00,
2013-06-22 14:37:00,76.7,70.1,29.98,SSW,208,6.2,8.1,80,0.00,CLR,,0.41,WeatherDisplay:10.37,2013-06-22 19:37:00,
2013-06-22 14:42:00,77.1,69.3,29.98,SSE,158,6.5,17.3,77,0.00,CLR,,0.41,WeatherDisplay:10.37,2013-06-22 19:42:00,
2013-06-22 14:47:00,77.1,68.9,29.98,SE,126,6.1,6.9,76,0.00,CLR,,0.41,WeatherDisplay:10.37,2013-06-22 19:47:00,
2013-06-22 14:52:00,77.2,69.4,29.97,SE,144,5.7,6.9,77,0.00,CLR,,0.41,WeatherDisplay:10.37,2013-06-22 19:52:00,
2013-06-22 14:57:00,77.3,70.3,29.97,SW,219,3.5,9.2,79,0.00,CLR,,0.41,WeatherDisplay:10.37,2013-06-22 19:57:00,
2013-06-22 15:02:00,77.9,70.1,29.96,SE,126,7.6,9.2,77,0.00,FEW,,0.41,WeatherDisplay:10.37,2013-06-22 20:02:00,
2013-06-22 15:07:00,78.5,71.1,29.95,WSW,253,1.4,8.1,78,0.00,FEW,,0.41,WeatherDisplay:10.37,2013-06-22 20:07:00,
2013-06-22 15:12:00,79.2,71.0,29.94,SSW,206,4.2,10.4,76,0.00,FEW,,0.41,WeatherDisplay:10.37,2013-06-22 20:12:00,
2013-06-22 15:17:00,79.5,70.5,29.94,South,182,4.5,7.5,74,0.00,FEW,,0.41,WeatherDisplay:10.37,2013-06-22 20:17:00,
2013-06-22 15:22:00,80.0,69.7,29.94,South,187,6.0,9.2,71,0.00,FEW,,0.41,WeatherDisplay:10.37,2013-06-22 20:22:00,
2013-06-22 15:27:00,80.3,70.0,29.94,SSE,167,3.6,6.9,71,0.00,FEW,,0.41,WeatherDisplay:10.37,2013-06-22 20:27:00,
2013-06-22 15:32:00,81.1,70.4,29.94,SSE,151,3.0,6.9,70,0.00,FEW,,0.41,WeatherDisplay:10.37,2013-06-22 20:32:00,
2013-06-22 15:37:00,81.4,69.8,29.94,SE,144,6.0,9.2,68,0.00,FEW,,0.41,WeatherDisplay:10.37,2013-06-22 20:37:00,
2013-06-22 15:42:00,81.1,69.5,29.93,ESE,109,3.2,6.9,68,0.00,FEW,,0.41,WeatherDisplay:10.37,2013-06-22 20:42:00,
2013-06-22 15:47:00,81.3,70.6,29.93,South,175,2.4,4.6,70,0.00,FEW,,0.41,WeatherDisplay:10.37,2013-06-22 20:47:00,
2013-06-22 15:52:00,81.8,70.2,29.93,SSW,213,4.0,8.1,68,0.00,FEW,,0.41,WeatherDisplay:10.37,2013-06-22 20:52:00,
2013-06-22 15:57:00,81.8,68.9,29.93,SW,226,4.3,8.1,65,0.00,FEW,,0.41,WeatherDisplay:10.37,2013-06-22 20:57:00,
2013-06-22 16:02:00,81.5,67.2,29.93,SW,216,2.9,10.4,62,0.00,FEW,,0.41,WeatherDisplay:10.37,2013-06-22 21:02:00,
2013-06-22 16:07:00,81.5,66.8,29.94,SSW,196,6.6,11.5,61,0.00,FEW,,0.41,WeatherDisplay:10.37,2013-06-22 21:07:00,
2013-06-22 16:12:00,81.9,68.5,29.95,East,89,2.8,4.0,64,0.00,FEW,,0.41,WeatherDisplay:10.37,2013-06-22 21:12:00,
2013-06-22 16:17:00,81.6,66.8,29.95,South,180,4.9,6.9,61,0.00,FEW,,0.41,WeatherDisplay:10.37,2013-06-22 21:17:00,
2013-06-22 16:22:00,81.6,67.3,29.95,SW,215,2.7,6.9,62,0.00,FEW,,0.41,WeatherDisplay:10.37,2013-06-22 21:22:00,
2013-06-22 16:27:00,82.1,67.8,29.95,SSW,194,2.8,4.6,62,0.00,FEW,,0.41,WeatherDisplay:10.37,2013-06-22 21:27:00,
2013-06-22 16:32:00,82.0,66.3,29.95,SSW,195,4.2,8.1,59,0.00,FEW,,0.41,WeatherDisplay:10.37,2013-06-22 21:32:00,
2013-06-22 16:37:00,81.9,67.6,29.95,SE,141,2.8,6.9,62,0.00,FEW,,0.41,WeatherDisplay:10.37,2013-06-22 21:37:00,
2013-06-22 16:42:00,82.3,68.0,29.95,South,181,1.9,5.8,62,0.00,FEW,,0.41,WeatherDisplay:10.37,2013-06-22 21:42:00,
2013-06-22 16:47:00,82.4,68.1,29.95,SE,132,0.4,5.8,62,0.00,FEW,,0.41,WeatherDisplay:10.37,2013-06-22 21:47:00,
2013-06-22 16:52:00,82.1,66.8,29.96,South,175,3.8,4.6,60,0.00,FEW,,0.41,WeatherDisplay:10.37,2013-06-22 21:52:00,
2013-06-22 16:57:00,82.1,67.3,29.96,SE,146,2.5,10.4,61,0.00,FEW,,0.41,WeatherDisplay:10.37,2013-06-22 21:57:00,
2013-06-22 17:02:00,82.2,67.4,29.96,South,171,2.1,6.9,61,0.00,FEW,,0.41,WeatherDisplay:10.37,2013-06-22 22:02:00,
2013-06-22 17:07:00,82.4,68.1,29.96,ESE,123,0.5,1.2,62,0.00,FEW,,0.41,WeatherDisplay:10.37,2013-06-22 22:07:00,
2013-06-22 17:12:00,82.5,67.7,29.97,SSE,163,2.2,4.6,61,0.00,FEW,,0.41,WeatherDisplay:10.37,2013-06-22 22:12:00,
2013-06-22 17:17:00,82.0,67.7,29.96,SE,133,0.8,2.3,62,0.00,FEW,,0.41,WeatherDisplay:10.37,2013-06-22 22:17:00,
2013-06-22 17:22:00,81.4,68.1,29.96,ESE,108,1.0,3.5,64,0.00,FEW,,0.41,WeatherDisplay:10.37,2013-06-22 22:22:00,
2013-06-22 17:27:00,81.5,69.0,29.97,ESE,120,0.7,2.3,66,0.00,FEW,,0.41,WeatherDisplay:10.37,2013-06-22 22:27:00,
2013-06-22 17:32:00,81.1,69.1,29.96,ESE,109,0.2,0.6,67,0.00,FEW,,0.41,WeatherDisplay:10.37,2013-06-22 22:32:00,
2013-06-22 17:37:00,80.7,69.6,29.96,SE,130,0.0,1.2,69,0.00,FEW,,0.41,WeatherDisplay:10.37,2013-06-22 22:37:00,
2013-06-22 17:42:00,80.6,69.9,29.97,SE,130,0.0,0.0,70,0.00,FEW,,0.41,WeatherDisplay:10.37,2013-06-22 22:42:00,
2013-06-22 17:47:00,80.7,70.4,29.96,ENE,68,0.0,1.2,71,0.00,FEW,,0.41,WeatherDisplay:10.37,2013-06-22 22:47:00,
2013-06-22 17:52:00,80.6,70.3,29.96,SE,132,0.0,1.2,71,0.00,FEW,,0.41,WeatherDisplay:10.37,2013-06-22 22:52:00,
2013-06-22 17:57:00,80.7,70.8,29.96,East,85,0.5,2.2,72,0.00,FEW,,0.41,WeatherDisplay:10.37,2013-06-22 22:57:00,
2013-06-22 18:02:00,80.4,70.5,29.96,East,88,2.0,3.5,72,0.00,FEW,,0.41,WeatherDisplay:10.37,2013-06-22 23:02:00,
2013-06-22 18:07:00,80.0,71.0,29.96,ESE,110,1.6,3.5,74,0.00,FEW,,0.41,WeatherDisplay:10.37,2013-06-22 23:07:00,
2013-06-22 18:12:00,79.7,71.5,29.96,ESE,102,0.0,0.0,76,0.00,FEW,,0.41,WeatherDisplay:10.37,2013-06-22 23:12:00,
2013-06-22 18:17:00,79.7,72.2,29.96,East,91,0.8,2.3,78,0.00,FEW,,0.41,WeatherDisplay:10.37,2013-06-22 23:17:00,
2013-06-22 18:22:00,79.4,72.7,29.95,ESE,103,0.2,1.2,80,0.00,FEW,,0.41,WeatherDisplay:10.37,2013-06-22 23:22:00,
2013-06-22 18:27:00,79.5,73.2,29.95,SE,126,0.1,2.3,81,0.00,FEW,,0.41,WeatherDisplay:10.37,2013-06-22 23:27:00,
2013-06-22 18:32:00,79.3,73.3,29.95,ENE,78,1.5,3.5,82,0.00,FEW,,0.41,WeatherDisplay:10.37,2013-06-22 23:32:00,
2013-06-22 18:37:00,79.3,73.3,29.94,SSE,168,1.4,3.5,82,0.00,FEW,,0.41,WeatherDisplay:10.37,2013-06-22 23:37:00,
2013-06-22 18:42:00,79.1,73.5,29.94,East,82,3.1,4.6,83,0.00,FEW,,0.41,WeatherDisplay:10.37,2013-06-22 23:42:00,
2013-06-22 18:47:00,78.9,73.7,29.94,SSE,161,1.5,4.6,84,0.00,FEW,,0.41,WeatherDisplay:10.37,2013-06-22 23:47:00,
2013-06-22 18:52:00,78.7,74.2,29.93,ENE,78,3.4,4.6,86,0.00,FEW,,0.41,WeatherDisplay:10.37,2013-06-22 23:52:00,
2013-06-22 18:57:00,78.7,74.5,29.93,ESE,113,2.1,4.2,87,0.00,FEW,,0.41,WeatherDisplay:10.37,2013-06-22 23:57:00,
2013-06-22 19:02:00,78.3,74.5,29.94,ESE,106,3.1,6.9,88,0.00,BKN,,0.41,WeatherDisplay:10.37,2013-06-23 00:02:00,
2013-06-22 19:07:00,78.2,74.4,29.94,ESE,102,2.0,3.5,88,0.00,BKN,,0.41,WeatherDisplay:10.37,2013-06-23 00:07:00,
2013-06-22 19:12:00,78.1,74.3,29.94,ESE,109,3.3,6.9,88,0.00,BKN,,0.41,WeatherDisplay:10.37,2013-06-23 00:12:00,
2013-06-22 19:17:00,78.1,74.6,29.93,East,99,3.5,3.5,89,0.00,BKN,,0.41,WeatherDisplay:10.37,2013-06-23 00:17:00,
2013-06-22 19:22:00,77.9,74.4,29.93,SSE,158,3.5,5.8,89,0.00,BKN,,0.41,WeatherDisplay:10.37,2013-06-23 00:22:00,
2013-06-22 19:27:00,77.8,74.6,29.93,SSE,151,4.0,8.1,90,0.00,BKN,,0.41,WeatherDisplay:10.37,2013-06-23 00:27:00,
2013-06-22 19:32:00,77.7,74.5,29.93,ENE,76,3.2,5.2,90,0.00,BKN,,0.41,WeatherDisplay:10.37,2013-06-23 00:32:00,
2013-06-22 19:37:00,77.5,74.7,29.94,SSE,150,2.2,4.6,91,0.00,BKN,,0.41,WeatherDisplay:10.37,2013-06-23 00:37:00,
2013-06-22 19:42:00,77.5,75.0,29.95,ESE,103,3.7,6.9,92,0.00,BKN,,0.41,WeatherDisplay:10.37,2013-06-23 00:42:00,
2013-06-22 19:47:00,77.7,75.8,29.94,SE,139,4.8,5.8,94,0.00,BKN,,0.41,WeatherDisplay:10.37,2013-06-23 00:47:00,
2013-06-22 19:52:00,77.5,76.0,29.94,East,100,4.5,7.5,95,0.00,BKN,,0.41,WeatherDisplay:10.37,2013-06-23 00:52:00,
2013-06-22 19:57:00,77.5,76.3,29.93,SSE,150,3.1,6.9,96,0.00,BKN,,0.41,WeatherDisplay:10.37,2013-06-23 00:57:00,
2013-06-22 20:02:00,77.4,76.8,29.94,SE,124,3.7,9.2,98,0.00,BKN,,0.41,WeatherDisplay:10.37,2013-06-23 01:02:00,
2013-06-22 20:07:00,77.4,77.4,29.94,East,85,3.0,5.8,100,0.00,BKN,,0.41,WeatherDisplay:10.37,2013-06-23 01:07:00,
2013-06-22 20:12:00,77.4,77.4,29.95,SSE,156,3.0,5.8,100,0.00,BKN,,0.41,WeatherDisplay:10.37,2013-06-23 01:12:00,
2013-06-22 20:17:00,77.3,77.3,29.97,NNW,336,5.9,9.1,100,0.00,BKN,,0.41,WeatherDisplay:10.37,2013-06-23 01:17:00,
2013-06-22 20:22:00,75.3,68.3,29.98,West,273,6.1,10.5,79,0.00,BKN,,0.41,WeatherDisplay:10.37,2013-06-23 01:22:00,
2013-06-22 20:27:00,72.6,68.2,30.00,North,349,7.2,15.0,86,0.00,BKN,,0.41,WeatherDisplay:10.37,2013-06-23 01:27:00,
2013-06-22 20:32:00,71.5,69.7,30.01,WNW,292,5.4,11.5,94,0.00,BKN,,0.41,WeatherDisplay:10.37,2013-06-23 01:32:00,
2013-06-22 20:37:00,70.1,70.1,30.01,NNE,20,8.0,13.8,100,0.18,RA,,0.61,WeatherDisplay:10.37,2013-06-23 01:37:00,
2013-06-22 20:42:00,68.9,68.9,30.00,NNW,338,5.2,9.2,100,0.31,RA,,0.73,WeatherDisplay:10.37,2013-06-23 01:42:00,
2013-06-22 20:47:00,68.1,68.1,29.99,North,352,4.3,8.1,100,0.40,RA,,0.82,WeatherDisplay:10.37,2013-06-23 01:47:00,
2013-06-22 20:52:00,67.2,67.2,29.97,NNW,335,5.9,9.2,100,0.42,RA,,0.84,WeatherDisplay:10.37,2013-06-23 01:52:00,
2013-06-22 20:57:00,66.6,66.6,29.97,NNW,333,7.3,11.1,100,0.45,RA,,0.87,WeatherDisplay:10.37,2013-06-23 01:57:00,
2013-06-22 21:02:00,66.9,66.9,29.95,East,81,0.9,2.3,100,0.49,RA,,0.90,WeatherDisplay:10.37,2013-06-23 02:02:00,
2013-06-22 21:07:00,67.0,67.0,29.97,West,280,1.3,2.3,100,0.49,RA,,0.90,WeatherDisplay:10.37,2013-06-23 02:07:00,
2013-06-22 21:12:00,67.0,67.0,29.98,West,280,0.0,0.0,100,0.49,OVC,,0.90,WeatherDisplay:10.37,2013-06-23 02:12:00,
2013-06-22 21:17:00,66.9,66.9,29.99,SE,129,0.3,1.2,100,0.49,OVC,,0.90,WeatherDisplay:10.37,2013-06-23 02:17:00,
2013-06-22 21:22:00,66.9,66.9,29.99,East,88,2.3,3.5,100,0.49,OVC,,0.90,WeatherDisplay:10.37,2013-06-23 02:22:00,
2013-06-22 21:27:00,66.7,66.7,29.99,ESE,103,2.0,3.5,100,0.49,OVC,,0.90,WeatherDisplay:10.37,2013-06-23 02:27:00,
2013-06-22 21:32:00,66.7,66.7,29.99,NE,50,2.1,3.5,100,0.49,OVC,,0.90,WeatherDisplay:10.37,2013-06-23 02:32:00,
2013-06-22 21:37:00,66.5,66.5,30.00,ENE,65,1.3,4.6,100,0.31,OVC,,0.90,WeatherDisplay:10.37,2013-06-23 02:37:00,
2013-06-22 21:42:00,66.5,66.5,30.01,NW,308,4.6,6.6,100,0.18,OVC,,0.90,WeatherDisplay:10.37,2013-06-23 02:42:00,
2013-06-22 21:47:00,66.4,66.4,30.03,NNW,336,5.7,8.5,100,0.09,OVC,,0.90,WeatherDisplay:10.37,2013-06-23 02:47:00,
2013-06-22 21:52:00,66.4,66.4,30.03,West,278,5.5,9.2,100,0.07,OVC,,0.90,WeatherDisplay:10.37,2013-06-23 02:52:00,
2013-06-22 21:57:00,66.8,66.8,30.04,WNW,288,5.4,8.1,100,0.04,OVC,,0.90,WeatherDisplay:10.37,2013-06-23 02:57:00,
2013-06-22 22:02:00,66.9,66.9,30.04,NNW,342,2.5,11.1,100,0.00,OVC,,0.90,WeatherDisplay:10.37,2013-06-23 03:02:00,
2013-06-22 22:07:00,66.7,66.7,30.05,North,359,7.0,17.3,100,0.01,RA,,0.92,WeatherDisplay:10.37,2013-06-23 03:07:00,
2013-06-22 22:12:00,66.3,66.3,30.06,NNW,336,5.7,8.1,100,0.03,RA,,0.94,WeatherDisplay:10.37,2013-06-23 03:12:00,
2013-06-22 22:17:00,66.1,66.1,30.06,North,352,4.3,6.9,100,0.08,RA,,0.99,WeatherDisplay:10.37,2013-06-23 03:17:00,
2013-06-22 22:22:00,65.9,65.9,30.04,NE,43,1.5,5.8,100,0.21,RA,,1.13,WeatherDisplay:10.37,2013-06-23 03:22:00,
2013-06-22 22:27:00,65.7,65.7,30.03,ENE,78,1.4,2.3,100,0.30,RA,,1.20,WeatherDisplay:10.37,2013-06-23 03:27:00,
2013-06-22 22:32:00,65.5,65.5,30.03,NE,36,1.9,4.6,100,0.31,RA,,1.22,WeatherDisplay:10.37,2013-06-23 03:32:00,
2013-06-22 22:37:00,65.3,65.3,30.03,NNE,20,0.0,0.0,100,0.35,RA,,1.25,WeatherDisplay:10.37,2013-06-23 03:37:00,
2013-06-22 22:42:00,65.3,65.3,30.03,SE,133,0.0,0.0,100,0.36,RA,,1.26,WeatherDisplay:10.37,2013-06-23 03:42:00,
2013-06-22 22:47:00,65.4,65.4,30.02,SE,133,0.0,0.0,100,0.37,RA,,1.27,WeatherDisplay:10.37,2013-06-23 03:47:00,
2013-06-22 22:52:00,65.3,65.3,30.01,SE,133,0.0,0.0,100,0.37,RA,,1.27,WeatherDisplay:10.37,2013-06-23 03:52:00,
2013-06-22 22:57:00,65.3,65.3,30.02,NE,41,1.7,2.6,100,0.37,OVC,,1.27,WeatherDisplay:10.37,2013-06-23 03:57:00,
2013-06-22 23:01:00,65.3,65.3,30.02,ENE,72,0.7,2.3,100,0.37,OVC,,1.27,WeatherDisplay:10.37,2013-06-23 04:01:00,
2013-06-22 23:06:00,65.2,65.2,30.02,NNE,21,2.8,3.7,100,0.36,OVC,,1.27,WeatherDisplay:10.37,2013-06-23 04:06:00,
2013-06-22 23:11:00,65.3,65.3,30.03,NNE,30,0.0,0.0,100,0.34,OVC,,1.27,WeatherDisplay:10.37,2013-06-23 04:11:00,
2013-06-22 23:16:00,65.3,65.3,30.03,NNE,30,0.0,0.0,100,0.29,OVC,,1.27,WeatherDisplay:10.37,2013-06-23 04:16:00,
2013-06-22 23:21:00,65.5,65.5,30.03,ENE,67,0.8,2.2,100,0.18,OVC,,1.27,WeatherDisplay:10.37,2013-06-23 04:21:00,
2013-06-22 23:26:00,65.3,65.3,30.03,ENE,74,1.2,2.3,100,0.07,OVC,,1.27,WeatherDisplay:10.37,2013-06-23 04:26:00,
2013-06-22 23:31:00,65.3,65.3,30.04,NW,319,0.6,1.7,100,0.06,OVC,,1.27,WeatherDisplay:10.37,2013-06-23 04:31:00,
2013-06-22 23:36:00,65.3,65.3,30.03,NE,48,3.9,5.8,100,0.07,RA,,1.32,WeatherDisplay:10.37,2013-06-23 04:36:00,
2013-06-22 23:41:00,65.3,65.3,30.03,NE,55,1.8,5.8,100,0.12,RA,,1.38,WeatherDisplay:10.37,2013-06-23 04:41:00,
2013-06-22 23:46:00,65.5,65.5,30.07,West,267,3.7,5.8,100,0.11,RA,,1.38,WeatherDisplay:10.37,2013-06-23 04:46:00,
2013-06-22 23:51:00,65.4,65.4,30.07,SE,133,1.4,2.3,100,0.21,RA,,1.50,WeatherDisplay:10.37,2013-06-23 04:51:00,
2013-06-22 23:56:00,65.3,65.3,30.06,NE,45,2.2,3.7,100,0.34,RA,,1.62,WeatherDisplay:10.37,2013-06-23 04:56:00,